Time;durP1;ratioP1;P1;durP2;ratioP2;P2;SDS_P1;SDS_P2;PMS_P1;PMS_P2;Temp;Humidity;BMP_temperature;BMP_pressure;BME280_temperature;BME280_humidity;BME280_pressure;Samples;Min_cycle;Max_cycle;Signal;HPM_P1;HPM_P2
2023/10/31 00:00:34;;;;;;;6.47;1.03;;;;;;;;;;5076341;28;20040;-81
2023/10/31 00:02:59;;;;;;;1.07;0.90;;;;;;;;;;5058381;28;20012;-81
2023/10/31 00:05:25;;;;;;;3.97;0.83;;;;;;;;;;5076065;28;20264;-82
2023/10/31 00:07:50;;;;;;;1.00;0.70;;;;;;;;;;5058298;28;20257;-82
2023/10/31 00:10:15;;;;;;;1.13;0.88;;;;;;;;;;5058169;28;20250;-82
2023/10/31 00:12:40;;;;;;;3.70;0.90;;;;;;;;;;5075887;28;20086;-82
2023/10/31 00:15:06;;;;;;;4.03;0.80;;;;;;;;;;5058038;28;20107;-82
2023/10/31 00:17:31;;;;;;;6.18;1.08;;;;;;;;;;5057859;28;20027;-82
2023/10/31 00:19:56;;;;;;;1.03;0.83;;;;;;;;;;5057993;28;20111;-82
2023/10/31 00:22:22;;;;;;;1.00;0.80;;;;;;;;;;5058063;28;20187;-81
2023/10/31 00:24:47;;;;;;;1.42;0.80;;;;;;;;;;5057593;28;20048;-82
2023/10/31 00:27:14;;;;;;;9.23;0.95;;;;;;;;;;5076021;28;20090;-81
2023/10/31 00:29:39;;;;;;;0.82;0.63;;;;;;;;;;5057940;28;20035;-81
2023/10/31 00:32:05;;;;;;;1.17;0.65;;;;;;;;;;5057432;28;20025;-81
2023/10/31 00:34:30;;;;;;;2.30;1.10;;;;;;;;;;5075692;28;20078;-81
2023/10/31 00:36:55;;;;;;;3.10;1.30;;;;;;;;;;5075559;28;20044;-81
2023/10/31 00:39:21;;;;;;;2.90;1.20;;;;;;;;;;5057559;28;20629;-82
2023/10/31 00:41:47;;;;;;;1.52;1.20;;;;;;;;;;5075332;28;20025;-81
2023/10/31 00:44:12;;;;;;;1.10;1.00;;;;;;;;;;5057649;28;20163;-81
2023/10/31 00:46:37;;;;;;;2.30;1.50;;;;;;;;;;5075452;28;20260;-81
2023/10/31 00:49:03;;;;;;;1.63;1.25;;;;;;;;;;5057379;28;20028;-81
2023/10/31 00:51:28;;;;;;;3.25;1.35;;;;;;;;;;5057015;28;20115;-81
2023/10/31 00:53:53;;;;;;;2.30;1.23;;;;;;;;;;5075262;28;20017;-81
2023/10/31 00:56:19;;;;;;;5.63;1.40;;;;;;;;;;5057173;28;20385;-81
2023/10/31 00:58:44;;;;;;;2.40;1.05;;;;;;;;;;5075218;28;20276;-81
2023/10/31 01:01:09;;;;;;;3.23;1.17;;;;;;;;;;5075049;28;20507;-81
2023/10/31 01:03:35;;;;;;;2.20;0.80;;;;;;;;;;5074413;28;20032;-81
2023/10/31 01:06:00;;;;;;;3.00;0.80;;;;;;;;;;5057070;28;20024;-82
2023/10/31 01:08:25;;;;;;;3.13;0.90;;;;;;;;;;5074817;28;20268;-81
2023/10/31 01:10:50;;;;;;;4.13;0.90;;;;;;;;;;5057131;28;20276;-81
2023/10/31 01:13:15;;;;;;;0.60;0.50;;;;;;;;;;5074979;28;20373;-81
2023/10/31 01:15:41;;;;;;;1.23;0.50;;;;;;;;;;5056933;28;20324;-81
2023/10/31 01:18:06;;;;;;;1.40;0.73;;;;;;;;;;5074897;28;20492;-81
2023/10/31 01:20:31;;;;;;;1.15;0.57;;;;;;;;;;5074895;28;20023;-81
2023/10/31 01:22:56;;;;;;;3.27;1.10;;;;;;;;;;5074227;28;20506;-81
2023/10/31 01:25:22;;;;;;;3.78;0.70;;;;;;;;;;5056810;28;20288;-81
2023/10/31 01:27:47;;;;;;;1.73;0.50;;;;;;;;;;5056827;28;20093;-81
2023/10/31 01:30:13;;;;;;;2.30;0.68;;;;;;;;;;5056717;28;20326;-81
2023/10/31 01:32:38;;;;;;;1.85;0.50;;;;;;;;;;5056492;28;20472;-81
2023/10/31 01:35:04;;;;;;;1.00;0.52;;;;;;;;;;5056309;28;20016;-81
2023/10/31 01:37:29;;;;;;;0.93;0.60;;;;;;;;;;5056627;28;20033;-81
2023/10/31 01:39:54;;;;;;;2.47;0.70;;;;;;;;;;5056526;28;20388;-81
2023/10/31 01:42:19;;;;;;;4.87;0.63;;;;;;;;;;5074283;28;20036;-81
2023/10/31 01:44:45;;;;;;;5.30;0.80;;;;;;;;;;5074272;28;20024;-81
2023/10/31 01:47:10;;;;;;;3.63;0.90;;;;;;;;;;5074131;28;20293;-82
2023/10/31 01:49:36;;;;;;;1.15;0.57;;;;;;;;;;5056290;28;20117;-81
2023/10/31 01:52:03;;;;;;;4.10;0.77;;;;;;;;;;5074134;28;20441;-81
2023/10/31 01:54:29;;;;;;;0.93;0.50;;;;;;;;;;5056064;28;20031;-81
2023/10/31 01:56:57;;;;;;;3.50;0.70;;;;;;;;;;5074037;28;20017;-81
2023/10/31 01:59:23;;;;;;;1.00;0.63;;;;;;;;;;5074034;28;20013;-81
2023/10/31 02:01:49;;;;;;;2.50;0.68;;;;;;;;;;5055977;28;20381;-81
2023/10/31 02:04:14;;;;;;;2.13;0.73;;;;;;;;;;5073901;28;20086;-81
2023/10/31 02:06:39;;;;;;;1.10;0.60;;;;;;;;;;5055841;28;20082;-81
2023/10/31 02:09:04;;;;;;;2.28;0.60;;;;;;;;;;5056035;28;20257;-81
2023/10/31 02:11:30;;;;;;;4.57;0.70;;;;;;;;;;5073433;28;20028;-81
2023/10/31 02:13:55;;;;;;;0.87;0.60;;;;;;;;;;5055194;28;20261;-81
2023/10/31 02:16:20;;;;;;;4.27;0.87;;;;;;;;;;5073645;28;20044;-81
2023/10/31 02:18:45;;;;;;;4.43;0.60;;;;;;;;;;5073400;28;20249;-81
2023/10/31 02:21:11;;;;;;;2.00;0.60;;;;;;;;;;5073564;28;20066;-81
2023/10/31 02:23:36;;;;;;;3.67;0.70;;;;;;;;;;5055637;28;20048;-81
2023/10/31 02:26:02;;;;;;;2.53;0.57;;;;;;;;;;5038742;28;20629;-81
2023/10/31 02:28:27;;;;;;;1.75;0.70;;;;;;;;;;5055510;28;20265;-81
2023/10/31 02:30:53;;;;;;;1.38;0.82;;;;;;;;;;5055271;28;20020;-81
2023/10/31 02:33:18;;;;;;;5.95;0.90;;;;;;;;;;5073363;28;20024;-81
2023/10/31 02:35:43;;;;;;;1.70;0.70;;;;;;;;;;5055800;28;20043;-81
2023/10/31 02:38:09;;;;;;;0.93;0.60;;;;;;;;;;5073613;28;20495;-81
2023/10/31 02:40:34;;;;;;;5.43;1.03;;;;;;;;;;5073628;28;20078;-81
2023/10/31 02:42:59;;;;;;;1.67;0.70;;;;;;;;;;5073127;28;20322;-81
2023/10/31 02:45:25;;;;;;;1.83;0.87;;;;;;;;;;5055184;28;20097;-81
2023/10/31 02:47:50;;;;;;;4.88;0.90;;;;;;;;;;5055308;28;20342;-81
2023/10/31 02:50:15;;;;;;;2.83;0.77;;;;;;;;;;5055249;28;20055;-81
2023/10/31 02:52:41;;;;;;;1.37;0.80;;;;;;;;;;5038389;28;20351;-81
2023/10/31 02:55:06;;;;;;;1.37;0.73;;;;;;;;;;5073084;28;20261;-81
2023/10/31 02:57:31;;;;;;;0.95;0.68;;;;;;;;;;5054919;28;20397;-81
2023/10/31 02:59:56;;;;;;;3.17;0.80;;;;;;;;;;5073097;28;20017;-81
2023/10/31 03:02:22;;;;;;;1.65;0.70;;;;;;;;;;5073292;28;20031;-81
2023/10/31 03:04:47;;;;;;;4.50;0.80;;;;;;;;;;5054896;28;20415;-80
2023/10/31 03:07:12;;;;;;;4.05;0.90;;;;;;;;;;5055015;28;20032;-81
2023/10/31 03:09:38;;;;;;;1.50;0.63;;;;;;;;;;5054992;28;20024;-81
2023/10/31 03:12:03;;;;;;;3.92;0.70;;;;;;;;;;5072729;28;20032;-81
2023/10/31 03:14:28;;;;;;;2.10;0.80;;;;;;;;;;5054862;28;20384;-81
2023/10/31 03:16:53;;;;;;;6.30;0.80;;;;;;;;;;5054860;28;20025;-81
2023/10/31 03:19:19;;;;;;;4.57;1.13;;;;;;;;;;5072667;28;20724;-81
2023/10/31 03:21:44;;;;;;;1.60;0.70;;;;;;;;;;5054950;28;20020;-81
2023/10/31 03:24:09;;;;;;;1.00;0.73;;;;;;;;;;5054712;28;20285;-81
2023/10/31 03:26:34;;;;;;;1.60;0.60;;;;;;;;;;5059476;28;20268;-81
2023/10/31 03:29:00;;;;;;;3.45;0.63;;;;;;;;;;5061439;28;20832;-81
2023/10/31 03:31:25;;;;;;;1.58;0.70;;;;;;;;;;5079088;28;20032;-81
2023/10/31 03:33:51;;;;;;;6.63;1.00;;;;;;;;;;5079291;28;20163;-81
2023/10/31 03:36:16;;;;;;;2.22;0.68;;;;;;;;;;5079434;28;20027;-81
2023/10/31 03:38:41;;;;;;;2.78;0.88;;;;;;;;;;5061246;28;20366;-81
2023/10/31 03:41:07;;;;;;;1.77;0.93;;;;;;;;;;5079370;28;20021;-81
2023/10/31 03:43:32;;;;;;;4.32;1.10;;;;;;;;;;5079369;28;20261;-81
2023/10/31 03:45:58;;;;;;;4.55;0.77;;;;;;;;;;5061083;28;20107;-81
2023/10/31 03:48:23;;;;;;;1.38;0.57;;;;;;;;;;5079261;28;20036;-81
2023/10/31 03:50:49;;;;;;;3.15;0.88;;;;;;;;;;5079163;28;20035;-81
2023/10/31 03:53:14;;;;;;;4.47;0.70;;;;;;;;;;5079084;28;20020;-81
2023/10/31 03:55:40;;;;;;;2.47;0.85;;;;;;;;;;5061092;28;20024;-81
2023/10/31 03:58:05;;;;;;;1.17;0.77;;;;;;;;;;5061046;28;20571;-81
2023/10/31 04:00:31;;;;;;;4.72;1.02;;;;;;;;;;5079039;28;20264;-81
2023/10/31 04:02:56;;;;;;;7.20;0.75;;;;;;;;;;5079153;28;20031;-81
2023/10/31 04:05:22;;;;;;;1.00;0.60;;;;;;;;;;5061084;28;20054;-81
2023/10/31 04:07:48;;;;;;;1.92;0.85;;;;;;;;;;5079059;28;20017;-81
2023/10/31 04:10:13;;;;;;;0.60;0.55;;;;;;;;;;5079019;28;20027;-81
2023/10/31 04:12:38;;;;;;;3.45;0.68;;;;;;;;;;5060809;28;20033;-81
2023/10/31 04:15:04;;;;;;;2.67;0.98;;;;;;;;;;5061086;28;20020;-81
2023/10/31 04:17:29;;;;;;;3.85;1.05;;;;;;;;;;5078797;28;20020;-82
2023/10/31 04:19:54;;;;;;;5.13;1.10;;;;;;;;;;5061014;28;20020;-81
2023/10/31 04:22:20;;;;;;;5.53;1.10;;;;;;;;;;5061014;28;20315;-82
2023/10/31 04:24:45;;;;;;;2.77;1.20;;;;;;;;;;5060817;28;20052;-82
2023/10/31 04:27:10;;;;;;;7.73;1.27;;;;;;;;;;5060782;28;20261;-82
2023/10/31 04:29:35;;;;;;;8.93;1.40;;;;;;;;;;5060938;28;20265;-82
2023/10/31 04:32:01;;;;;;;1.40;0.90;;;;;;;;;;5060639;28;20024;-82
2023/10/31 04:34:26;;;;;;;2.57;1.00;;;;;;;;;;5078538;28;20254;-82
2023/10/31 04:36:51;;;;;;;3.60;1.13;;;;;;;;;;5077615;28;20322;-82
2023/10/31 04:39:17;;;;;;;1.95;0.85;;;;;;;;;;5057528;28;20328;-80
2023/10/31 04:41:42;;;;;;;2.33;0.90;;;;;;;;;;5057403;28;20113;-81
2023/10/31 04:44:07;;;;;;;1.60;1.00;;;;;;;;;;5057485;28;20311;-82
2023/10/31 04:46:33;;;;;;;4.23;0.90;;;;;;;;;;5057539;28;20468;-81
2023/10/31 04:48:58;;;;;;;1.95;0.85;;;;;;;;;;5057271;28;20806;-82
2023/10/31 04:51:24;;;;;;;1.53;0.90;;;;;;;;;;5057241;28;20028;-84
2023/10/31 04:53:49;;;;;;;6.10;1.30;;;;;;;;;;5075330;28;20323;-82
2023/10/31 04:56:15;;;;;;;3.23;1.00;;;;;;;;;;5057157;28;20448;-82
2023/10/31 04:58:44;;;;;;;5.07;0.93;;;;;;;;;;5075273;28;20311;-82
2023/10/31 05:01:12;;;;;;;3.60;1.10;;;;;;;;;;5065848;28;20020;-82
2023/10/31 05:03:38;;;;;;;4.15;1.13;;;;;;;;;;5057301;28;20435;-83
2023/10/31 05:06:03;;;;;;;3.08;1.17;;;;;;;;;;5057006;28;20016;-82
2023/10/31 05:08:29;;;;;;;1.52;0.93;;;;;;;;;;5075002;28;20090;-83
2023/10/31 05:10:54;;;;;;;2.70;1.05;;;;;;;;;;5074933;28;20029;-83
2023/10/31 05:13:19;;;;;;;6.18;1.13;;;;;;;;;;5075298;28;20059;-82
2023/10/31 05:15:45;;;;;;;3.33;0.70;;;;;;;;;;5057372;28;20537;-82
2023/10/31 05:18:10;;;;;;;3.08;1.10;;;;;;;;;;5057413;28;20268;-82
2023/10/31 05:20:35;;;;;;;1.40;0.77;;;;;;;;;;5057383;28;20040;-82
2023/10/31 05:23:01;;;;;;;2.40;0.80;;;;;;;;;;5057148;28;20277;-82
2023/10/31 05:25:26;;;;;;;7.50;1.25;;;;;;;;;;5075150;28;20016;-82
2023/10/31 05:27:52;;;;;;;1.70;0.90;;;;;;;;;;5057156;28;20025;-82
2023/10/31 05:30:17;;;;;;;5.93;1.40;;;;;;;;;;5074990;28;20267;-82
2023/10/31 05:32:42;;;;;;;5.33;1.20;;;;;;;;;;5056813;28;20050;-82
2023/10/31 05:35:08;;;;;;;4.40;1.17;;;;;;;;;;5056857;28;20258;-82
2023/10/31 05:37:34;;;;;;;7.82;1.50;;;;;;;;;;5056872;28;20268;-82
2023/10/31 05:40:00;;;;;;;1.87;1.07;;;;;;;;;;5056836;28;20012;-82
2023/10/31 05:42:27;;;;;;;5.30;1.20;;;;;;;;;;5056794;28;20250;-82
2023/10/31 05:44:52;;;;;;;3.83;1.00;;;;;;;;;;5074812;28;20104;-82
2023/10/31 05:47:17;;;;;;;5.47;1.00;;;;;;;;;;5074714;28;20060;-82
2023/10/31 05:49:43;;;;;;;13.10;1.47;;;;;;;;;;5074496;28;20289;-82
2023/10/31 05:52:08;;;;;;;4.50;1.15;;;;;;;;;;5074295;28;20020;-82
2023/10/31 05:54:33;;;;;;;2.30;1.40;;;;;;;;;;5056627;28;20067;-82
2023/10/31 05:56:59;;;;;;;1.30;0.90;;;;;;;;;;5074601;28;20717;-82
2023/10/31 05:59:24;;;;;;;6.50;1.57;;;;;;;;;;5074404;28;20743;-82
2023/10/31 06:01:50;;;;;;;1.90;1.02;;;;;;;;;;5056460;28;20284;-82
2023/10/31 06:04:15;;;;;;;5.93;1.35;;;;;;;;;;5056244;28;20488;-82
2023/10/31 06:06:40;;;;;;;7.95;1.73;;;;;;;;;;5056317;28;20074;-83
2023/10/31 06:09:06;;;;;;;8.75;1.50;;;;;;;;;;5056270;28;20021;-82
2023/10/31 06:11:31;;;;;;;8.02;1.65;;;;;;;;;;5074246;28;20020;-82
2023/10/31 06:13:56;;;;;;;4.90;1.80;;;;;;;;;;5056361;28;20021;-82
2023/10/31 06:16:22;;;;;;;5.90;1.60;;;;;;;;;;5074233;28;20465;-82
2023/10/31 06:18:47;;;;;;;5.95;1.70;;;;;;;;;;5056258;28;20248;-82
2023/10/31 06:21:12;;;;;;;3.57;1.40;;;;;;;;;;5074137;28;20059;-82
2023/10/31 06:23:38;;;;;;;3.27;1.40;;;;;;;;;;5056031;28;20132;-82
2023/10/31 06:26:03;;;;;;;10.05;1.90;;;;;;;;;;5056096;28;20614;-82
2023/10/31 06:28:28;;;;;;;5.85;1.40;;;;;;;;;;5056104;28;20028;-82
2023/10/31 06:30:53;;;;;;;8.10;1.50;;;;;;;;;;5055897;28;20476;-83
2023/10/31 06:33:19;;;;;;;8.53;1.37;;;;;;;;;;5055981;28;20283;-82
2023/10/31 06:35:44;;;;;;;5.20;1.27;;;;;;;;;;5055879;28;20342;-82
2023/10/31 06:38:09;;;;;;;5.97;1.23;;;;;;;;;;5055872;28;20016;-82
2023/10/31 06:40:34;;;;;;;3.90;1.17;;;;;;;;;;5055834;28;20024;-82
2023/10/31 06:43:01;;;;;;;4.83;1.43;;;;;;;;;;5055715;28;20349;-82
2023/10/31 06:45:26;;;;;;;1.98;1.17;;;;;;;;;;5073701;28;20743;-82
2023/10/31 06:47:51;;;;;;;6.50;1.58;;;;;;;;;;5073714;28;20121;-82
2023/10/31 06:50:16;;;;;;;6.87;1.83;;;;;;;;;;5039148;28;20024;-82
2023/10/31 06:52:41;;;;;;;3.42;1.50;;;;;;;;;;5055645;28;20646;-82
2023/10/31 06:55:07;;;;;;;5.97;2.00;;;;;;;;;;5055542;28;20019;-82
2023/10/31 06:57:32;;;;;;;8.45;1.60;;;;;;;;;;5055603;28;20008;-82
2023/10/31 06:59:57;;;;;;;7.45;1.92;;;;;;;;;;5073093;28;20024;-82
2023/10/31 07:02:23;;;;;;;5.87;1.67;;;;;;;;;;5055424;28;20024;-82
2023/10/31 07:04:49;;;;;;;3.93;1.37;;;;;;;;;;5073554;28;20249;-82
2023/10/31 07:07:14;;;;;;;7.50;1.67;;;;;;;;;;5073433;28;20238;-82
2023/10/31 07:09:39;;;;;;;7.23;1.60;;;;;;;;;;5073371;28;20104;-82
2023/10/31 07:12:05;;;;;;;5.53;1.70;;;;;;;;;;5055286;28;20388;-82
2023/10/31 07:14:30;;;;;;;8.63;1.13;;;;;;;;;;5055286;28;20017;-82
2023/10/31 07:16:56;;;;;;;10.60;1.50;;;;;;;;;;5073371;28;20095;-82
2023/10/31 07:19:21;;;;;;;2.75;1.10;;;;;;;;;;5055393;28;20653;-82
2023/10/31 07:21:46;;;;;;;5.43;1.10;;;;;;;;;;5055189;28;20028;-82
2023/10/31 07:24:11;;;;;;;4.80;1.17;;;;;;;;;;5073105;28;20509;-82
2023/10/31 07:26:37;;;;;;;7.03;1.45;;;;;;;;;;5055243;28;20266;-82
2023/10/31 07:29:02;;;;;;;6.10;1.27;;;;;;;;;;5073219;28;20078;-82
2023/10/31 07:31:27;;;;;;;3.88;1.38;;;;;;;;;;5055180;28;20044;-82
2023/10/31 07:33:53;;;;;;;8.25;1.38;;;;;;;;;;5055091;28;20048;-82
2023/10/31 07:36:18;;;;;;;9.13;1.23;;;;;;;;;;5055278;28;20024;-82
2023/10/31 07:38:43;;;;;;;5.07;1.23;;;;;;;;;;5073150;28;20389;-82
2023/10/31 07:41:08;;;;;;;8.87;1.17;;;;;;;;;;5073113;28;20245;-82
2023/10/31 07:43:33;;;;;;;6.23;1.43;;;;;;;;;;5055111;28;20614;-82
2023/10/31 07:45:59;;;;;;;3.40;1.03;;;;;;;;;;5055076;28;20032;-82
2023/10/31 07:48:24;;;;;;;2.63;0.73;;;;;;;;;;5054948;28;20021;-81
2023/10/31 07:50:49;;;;;;;10.20;1.93;;;;;;;;;;5055014;28;20810;-82
2023/10/31 07:53:14;;;;;;;5.10;1.33;;;;;;;;;;5072948;28;20749;-82
2023/10/31 07:55:39;;;;;;;8.00;1.30;;;;;;;;;;5072911;28;20012;-82
2023/10/31 07:58:05;;;;;;;7.33;1.10;;;;;;;;;;5072915;28;20241;-82
2023/10/31 08:00:30;;;;;;;3.97;1.10;;;;;;;;;;5054892;28;20260;-82
2023/10/31 08:02:56;;;;;;;6.57;1.48;;;;;;;;;;5072856;28;20288;-82
2023/10/31 08:05:21;;;;;;;11.75;1.48;;;;;;;;;;5054951;28;20056;-82
2023/10/31 08:07:46;;;;;;;7.80;1.58;;;;;;;;;;5054963;28;20048;-82
2023/10/31 08:10:12;;;;;;;7.20;1.60;;;;;;;;;;5054802;28;20084;-82
2023/10/31 08:12:37;;;;;;;4.38;1.17;;;;;;;;;;5055569;28;20360;-82
2023/10/31 08:15:03;;;;;;;9.32;1.85;;;;;;;;;;5058744;28;20059;-82
2023/10/31 08:17:29;;;;;;;13.90;1.88;;;;;;;;;;5058485;28;20020;-82
2023/10/31 08:19:54;;;;;;;9.02;1.85;;;;;;;;;;5076425;28;20030;-82
2023/10/31 08:22:19;;;;;;;7.20;1.80;;;;;;;;;;5058453;28;20372;-81
2023/10/31 08:24:44;;;;;;;6.00;1.40;;;;;;;;;;5076227;28;20059;-82
2023/10/31 08:27:12;;;;;;;8.13;1.48;;;;;;;;;;5076303;28;20301;-82
2023/10/31 08:29:37;;;;;;;3.95;1.30;;;;;;;;;;5058303;28;20078;-82
2023/10/31 08:32:03;;;;;;;7.68;1.55;;;;;;;;;;5058188;28;20016;-82
2023/10/31 08:34:28;;;;;;;7.85;1.77;;;;;;;;;;5076180;28;20016;-82
2023/10/31 08:36:53;;;;;;;5.97;1.73;;;;;;;;;;5058234;28;20055;-82
2023/10/31 08:39:18;;;;;;;6.80;1.33;;;;;;;;;;5058165;28;20292;-82
2023/10/31 08:41:51;;;;;;;10.43;1.80;;;;;;;;;;5058194;28;20024;-82
2023/10/31 08:44:16;;;;;;;;;;;;;;;;;;5058495;28;20253;-82
2023/10/31 08:46:41;;;;;;;5.20;1.20;;;;;;;;;;5057970;28;19904;-82
2023/10/31 08:49:06;;;;;;;6.60;1.63;;;;;;;;;;5058075;28;20093;-82
2023/10/31 08:51:32;;;;;;;5.75;1.42;;;;;;;;;;5057903;28;20637;-82
2023/10/31 08:53:57;;;;;;;9.93;1.37;;;;;;;;;;5057903;28;20024;-82
2023/10/31 08:56:22;;;;;;;5.72;1.48;;;;;;;;;;5075863;28;20250;-82
2023/10/31 08:58:47;;;;;;;8.87;1.67;;;;;;;;;;5057794;28;20021;-81
2023/10/31 09:01:13;;;;;;;7.50;1.77;;;;;;;;;;5075624;28;20260;-82
2023/10/31 09:03:38;;;;;;;5.75;1.60;;;;;;;;;;5057772;28;20027;-82
2023/10/31 09:06:03;;;;;;;6.77;1.53;;;;;;;;;;5057713;28;20070;-82
2023/10/31 09:08:28;;;;;;;11.93;2.15;;;;;;;;;;5075624;28;20295;-82
2023/10/31 09:10:54;;;;;;;7.53;1.70;;;;;;;;;;5057631;28;20048;-82
2023/10/31 09:13:19;;;;;;;6.77;1.80;;;;;;;;;;5075419;28;20578;-82
2023/10/31 09:15:45;;;;;;;5.47;1.45;;;;;;;;;;5075639;28;20772;-82
2023/10/31 09:18:11;;;;;;;3.80;1.98;;;;;;;;;;5057356;28;20016;-82
2023/10/31 09:20:36;;;;;;;6.57;2.10;;;;;;;;;;5057371;28;20472;-82
2023/10/31 09:23:01;;;;;;;3.65;1.30;;;;;;;;;;5056740;28;20068;-82
2023/10/31 09:25:26;;;;;;;4.80;1.40;;;;;;;;;;5075301;28;20122;-82
2023/10/31 09:27:52;;;;;;;5.23;1.13;;;;;;;;;;5057288;28;20039;-82
2023/10/31 09:30:17;;;;;;;4.47;1.48;;;;;;;;;;5057136;28;20249;-82
2023/10/31 09:32:42;;;;;;;5.88;1.27;;;;;;;;;;5057077;28;20025;-82
2023/10/31 09:35:08;;;;;;;3.40;1.20;;;;;;;;;;5056985;28;20013;-82
2023/10/31 09:37:33;;;;;;;3.53;1.30;;;;;;;;;;5057035;28;20250;-83
2023/10/31 09:39:58;;;;;;;2.30;1.00;;;;;;;;;;5057050;28;20017;-83
2023/10/31 09:42:23;;;;;;;10.23;1.77;;;;;;;;;;5057036;28;20250;-83
2023/10/31 09:44:49;;;;;;;3.67;1.20;;;;;;;;;;5056925;28;20759;-83
2023/10/31 09:47:15;;;;;;;7.33;1.47;;;;;;;;;;5056882;28;20029;-83
2023/10/31 09:49:40;;;;;;;9.43;1.40;;;;;;;;;;5074798;28;20253;-82
2023/10/31 09:52:07;;;;;;;3.70;1.20;;;;;;;;;;5056734;28;20023;-83
2023/10/31 09:54:32;;;;;;;5.40;1.23;;;;;;;;;;5074641;28;20008;-83
2023/10/31 09:56:58;;;;;;;6.65;1.42;;;;;;;;;;5056657;28;20017;-83
2023/10/31 09:59:23;;;;;;;3.83;1.10;;;;;;;;;;5056653;28;20024;-83
2023/10/31 10:01:48;;;;;;;6.67;1.40;;;;;;;;;;5074418;28;20054;-83
2023/10/31 10:04:14;;;;;;;2.57;0.80;;;;;;;;;;5074543;28;20027;-82
2023/10/31 10:06:40;;;;;;;3.25;1.20;;;;;;;;;;5056442;28;20027;-82
2023/10/31 10:09:06;;;;;;;5.30;1.10;;;;;;;;;;5056564;28;20020;-82
2023/10/31 10:11:33;;;;;;;7.00;1.50;;;;;;;;;;5056239;28;20021;-82
2023/10/31 10:13:58;;;;;;;4.80;1.00;;;;;;;;;;5056277;28;20104;-83
2023/10/31 10:16:30;;;;;;;3.25;1.08;;;;;;;;;;5056316;28;20487;-83
2023/10/31 10:18:56;;;;;;;;;;;;;;;;;;5056733;28;20027;-82
2023/10/31 10:21:21;;;;;;;3.92;0.85;;;;;;;;;;5056266;28;19905;-83
2023/10/31 10:23:47;;;;;;;5.67;1.10;;;;;;;;;;5073926;28;20532;-82
2023/10/31 10:26:13;;;;;;;5.10;1.17;;;;;;;;;;5074030;28;20279;-83
2023/10/31 10:28:38;;;;;;;5.18;1.08;;;;;;;;;;5056069;28;20415;-82
2023/10/31 10:31:03;;;;;;;4.43;0.90;;;;;;;;;;5055886;28;20082;-83
2023/10/31 10:33:28;;;;;;;5.10;1.17;;;;;;;;;;5056079;28;20013;-83
2023/10/31 10:35:54;;;;;;;3.37;1.10;;;;;;;;;;5055428;28;20524;-83
2023/10/31 10:38:20;;;;;;;2.05;0.93;;;;;;;;;;5055850;28;20023;-83
2023/10/31 10:40:49;;;;;;;3.80;0.80;;;;;;;;;;5055926;28;20020;-83
2023/10/31 10:43:20;;;;;;;6.07;1.20;;;;;;;;;;5073772;28;20544;-82
2023/10/31 10:45:45;;;;;;;3.75;0.90;;;;;;;;;;5055742;28;20024;-82
2023/10/31 10:48:15;;;;;;;6.38;1.35;;;;;;;;;;5055938;28;20033;-82
2023/10/31 10:50:41;;;;;;;4.45;0.82;;;;;;;;;;5055648;28;20031;-82
2023/10/31 10:53:16;;;;;;;7.10;1.15;;;;;;;;;;5073487;28;20024;-82
2023/10/31 10:55:44;;;;;;;2.63;0.82;;;;;;;;;;5073543;28;20023;-83
2023/10/31 10:58:33;;;;;;;1.63;0.73;;;;;;;;;;5073490;28;20025;-82
2023/10/31 11:00:58;;;;;;;5.82;0.90;;;;;;;;;;5047350;28;20025;-82
2023/10/31 11:03:24;;;;;;;3.83;1.13;;;;;;;;;;5055532;28;20028;-83
2023/10/31 11:05:50;;;;;;;6.07;1.02;;;;;;;;;;5055534;28;20024;-83
2023/10/31 11:08:16;;;;;;;3.50;1.00;;;;;;;;;;5055479;28;20024;-83
2023/10/31 11:10:42;;;;;;;2.15;0.82;;;;;;;;;;5073491;28;20099;-82
2023/10/31 11:13:07;;;;;;;5.15;1.23;;;;;;;;;;5055351;28;20024;-83
2023/10/31 11:15:32;;;;;;;3.33;1.20;;;;;;;;;;5055503;28;20466;-83
2023/10/31 11:17:58;;;;;;;1.80;0.70;;;;;;;;;;5073335;28;20430;-82
2023/10/31 11:20:24;;;;;;;6.72;1.10;;;;;;;;;;5055319;28;20082;-82
2023/10/31 11:22:54;;;;;;;5.53;1.20;;;;;;;;;;5055142;28;20028;-82
2023/10/31 11:25:23;;;;;;;10.23;1.40;;;;;;;;;;5073222;28;20048;-82
2023/10/31 11:27:52;;;;;;;2.03;0.80;;;;;;;;;;5073224;28;20021;-83
2023/10/31 11:30:20;;;;;;;4.40;0.90;;;;;;;;;;5073193;28;20024;-82
2023/10/31 11:32:49;;;;;;;1.85;1.00;;;;;;;;;;5073148;28;20095;-82
2023/10/31 11:35:16;;;;;;;6.47;1.25;;;;;;;;;;5055059;28;20027;-83
2023/10/31 11:37:41;;;;;;;3.33;0.93;;;;;;;;;;5073363;28;20103;-82
2023/10/31 11:40:16;;;;;;;7.20;1.17;;;;;;;;;;5073122;28;20447;-82
2023/10/31 11:42:41;;;;;;;4.35;1.25;;;;;;;;;;5055198;28;20020;-82
2023/10/31 11:45:10;;;;;;;4.65;1.08;;;;;;;;;;5073133;28;20040;-82
2023/10/31 11:47:48;;;;;;;4.68;1.25;;;;;;;;;;5057672;28;20429;-82
2023/10/31 11:50:13;;;;;;;8.77;1.52;;;;;;;;;;5077003;28;20021;-82
2023/10/31 11:52:39;;;;;;;3.10;1.20;;;;;;;;;;5058948;28;20468;-83
2023/10/31 11:55:05;;;;;;;7.65;1.35;;;;;;;;;;5059036;28;20264;-83
2023/10/31 11:57:30;;;;;;;3.80;1.38;;;;;;;;;;5058864;28;20017;-82
2023/10/31 11:59:56;;;;;;;3.63;1.38;;;;;;;;;;5058879;28;20083;-82
2023/10/31 12:02:21;;;;;;;3.80;1.47;;;;;;;;;;5058899;28;20016;-82
2023/10/31 12:04:46;;;;;;;3.20;1.33;;;;;;;;;;5058718;28;20271;-82
2023/10/31 12:07:11;;;;;;;7.63;1.67;;;;;;;;;;5058800;28;20257;-82
2023/10/31 12:09:49;;;;;;;3.53;1.10;;;;;;;;;;5058702;28;20499;-82
2023/10/31 12:12:14;;;;;;;2.28;1.10;;;;;;;;;;5058592;28;20021;-82
2023/10/31 12:14:39;;;;;;;3.30;1.05;;;;;;;;;;5058498;28;20031;-82
2023/10/31 12:17:06;;;;;;;1.63;0.77;;;;;;;;;;5058548;28;20111;-82
2023/10/31 12:19:32;;;;;;;2.67;0.93;;;;;;;;;;5076441;28;20265;-82
2023/10/31 12:21:57;;;;;;;3.25;0.80;;;;;;;;;;5058451;28;20028;-82
2023/10/31 12:24:22;;;;;;;2.37;0.60;;;;;;;;;;5058362;28;20052;-82
2023/10/31 12:26:48;;;;;;;4.50;1.25;;;;;;;;;;5076247;28;20341;-82
2023/10/31 12:29:14;;;;;;;1.42;0.80;;;;;;;;;;5058334;28;20115;-82
2023/10/31 12:31:43;;;;;;;1.90;0.90;;;;;;;;;;5076149;28;20066;-82
2023/10/31 12:34:08;;;;;;;2.53;1.13;;;;;;;;;;5058166;28;20538;-82
2023/10/31 12:36:35;;;;;;;2.22;1.17;;;;;;;;;;5058251;28;20024;-82
2023/10/31 12:39:00;;;;;;;2.13;0.98;;;;;;;;;;5058114;28;20042;-82
2023/10/31 12:41:26;;;;;;;3.70;1.10;;;;;;;;;;5058211;28;20024;-82
2023/10/31 12:43:51;;;;;;;1.75;0.80;;;;;;;;;;5058056;28;20464;-82
2023/10/31 12:46:31;;;;;;;4.20;1.10;;;;;;;;;;5076045;28;20017;-82
2023/10/31 12:48:57;;;;;;;1.48;0.65;;;;;;;;;;5075931;28;20357;-82
2023/10/31 12:51:22;;;;;;;3.78;1.40;;;;;;;;;;5075911;28;20021;-82
2023/10/31 12:53:51;;;;;;;4.85;1.83;;;;;;;;;;5057899;28;20131;-82
2023/10/31 12:56:39;;;;;;;1.60;0.90;;;;;;;;;;5057986;28;20020;-82
2023/10/31 12:59:04;;;;;;;1.83;0.82;;;;;;;;;;5056888;28;20083;-82
2023/10/31 13:01:31;;;;;;;4.75;1.00;;;;;;;;;;5057793;28;20021;-82
2023/10/31 13:03:57;;;;;;;3.75;0.80;;;;;;;;;;5075672;28;20040;-82
2023/10/31 13:06:23;;;;;;;2.25;0.70;;;;;;;;;;5057621;28;20028;-82
2023/10/31 13:08:48;;;;;;;4.00;0.90;;;;;;;;;;5057536;28;20036;-82
2023/10/31 13:11:14;;;;;;;3.33;0.90;;;;;;;;;;5057631;28;20025;-82
2023/10/31 13:13:39;;;;;;;1.30;0.68;;;;;;;;;;5057612;28;20431;-82
2023/10/31 13:16:05;;;;;;;2.40;0.77;;;;;;;;;;5057440;28;20043;-82
2023/10/31 13:18:30;;;;;;;3.03;0.75;;;;;;;;;;5075299;28;20241;-82
2023/10/31 13:20:55;;;;;;;2.00;0.63;;;;;;;;;;5075435;28;20413;-82
2023/10/31 13:23:20;;;;;;;0.87;0.80;;;;;;;;;;5075427;28;20675;-82
2023/10/31 13:25:45;;;;;;;3.50;0.77;;;;;;;;;;5057341;28;20115;-82
2023/10/31 13:28:12;;;;;;;2.83;0.83;;;;;;;;;;5057340;28;20340;-82
2023/10/31 13:30:37;;;;;;;2.15;0.93;;;;;;;;;;5057185;28;20781;-82
2023/10/31 13:33:02;;;;;;;2.23;0.87;;;;;;;;;;5057108;28;20032;-82
2023/10/31 13:35:28;;;;;;;4.25;1.15;;;;;;;;;;5056995;28;20245;-82
2023/10/31 13:37:53;;;;;;;1.30;0.60;;;;;;;;;;5057263;28;20067;-82
2023/10/31 13:40:18;;;;;;;2.03;1.00;;;;;;;;;;5075007;28;20705;-82
2023/10/31 13:42:43;;;;;;;1.67;1.20;;;;;;;;;;5056984;28;20492;-82
2023/10/31 13:45:09;;;;;;;1.80;0.90;;;;;;;;;;5056932;28;20280;-82
2023/10/31 13:47:34;;;;;;;7.05;1.17;;;;;;;;;;5074874;28;20261;-82
2023/10/31 13:50:00;;;;;;;2.00;1.17;;;;;;;;;;5056829;28;20468;-82
2023/10/31 13:52:25;;;;;;;1.83;1.02;;;;;;;;;;5074594;28;20016;-82
2023/10/31 13:54:50;;;;;;;2.23;1.00;;;;;;;;;;5056789;28;20024;-83
2023/10/31 13:57:15;;;;;;;2.67;0.97;;;;;;;;;;5056702;28;20249;-82
2023/10/31 13:59:40;;;;;;;1.93;1.00;;;;;;;;;;5074596;28;20009;-82
2023/10/31 14:02:06;;;;;;;3.42;1.10;;;;;;;;;;5074510;28;20477;-82
2023/10/31 14:04:31;;;;;;;6.57;1.10;;;;;;;;;;5074436;28;20028;-82
2023/10/31 14:06:56;;;;;;;2.90;0.93;;;;;;;;;;5056532;28;20052;-82
2023/10/31 14:09:22;;;;;;;0.70;0.70;;;;;;;;;;5074380;28;20442;-82
2023/10/31 14:11:47;;;;;;;7.57;0.90;;;;;;;;;;5056320;28;20027;-82
2023/10/31 14:14:13;;;;;;;1.50;0.60;;;;;;;;;;5074635;28;20013;-82
2023/10/31 14:16:44;;;;;;;4.82;0.85;;;;;;;;;;5056299;28;20025;-82
2023/10/31 14:19:10;;;;;;;1.10;0.70;;;;;;;;;;5056241;28;20024;-82
2023/10/31 14:21:35;;;;;;;0.77;0.45;;;;;;;;;;5056178;28;20221;-82
2023/10/31 14:24:00;;;;;;;3.38;0.60;;;;;;;;;;5056038;28;20504;-82
2023/10/31 14:26:26;;;;;;;1.83;0.55;;;;;;;;;;5074181;28;20028;-82
2023/10/31 14:28:52;;;;;;;0.60;0.40;;;;;;;;;;5056018;28;20021;-82
2023/10/31 14:31:17;;;;;;;1.25;0.55;;;;;;;;;;5073907;28;20422;-82
2023/10/31 14:33:43;;;;;;;1.13;0.50;;;;;;;;;;5074049;28;20016;-82